Time;durP1;ratioP1;P1;durP2;ratioP2;P2;SDS_P1;SDS_P2;PMS_P1;PMS_P2;Temp;Humidity;BMP_temperature;BMP_pressure;BME280_temperature;BME280_humidity;BME280_pressure;Samples;Min_cycle;Max_cycle;Signal;HPM_P1;HPM_P2
2022/06/04 00:00:45;;;;;;;2.90;1.90;;;18.60;75.40;;;;;;2084396;28;20017;-70
2022/06/04 00:01:46;;;;;;;3.03;2.17;;;18.60;75.60;;;;;;2081347;28;20037;-70
2022/06/04 00:02:47;;;;;;;3.85;2.60;;;18.50;75.30;;;;;;2084205;28;20504;-70
2022/06/04 00:03:48;;;;;;;2.33;2.10;;;18.50;75.70;;;;;;2087508;28;20472;-70
2022/06/04 00:04:49;;;;;;;3.05;1.95;;;18.60;75.70;;;;;;2085099;28;20874;-70
2022/06/04 00:05:52;;;;;;;4.85;2.50;;;18.60;75.80;;;;;;2086551;28;20079;-70
2022/06/04 00:06:53;;;;;;;4.50;2.30;;;18.50;75.50;;;;;;2085325;28;20071;-70
2022/06/04 00:07:54;;;;;;;3.53;2.17;;;18.50;76.10;;;;;;2085589;28;20051;-70
2022/06/04 00:08:55;;;;;;;6.10;2.97;;;18.50;77.20;;;;;;2082824;28;20029;-70
2022/06/04 00:15:30;;;;;;;4.07;2.22;;;18.40;77.80;;;;;;2084105;28;20124;-70
2022/06/04 00:16:31;;;;;;;4.40;2.10;;;18.30;78.10;;;;;;2082814;28;20024;-70
2022/06/04 00:17:31;;;;;;;3.92;2.60;;;18.30;79.20;;;;;;2084008;28;20044;-70
2022/06/04 00:18:32;;;;;;;3.35;2.28;;;18.30;78.60;;;;;;2083182;28;20068;-70
2022/06/04 00:19:33;;;;;;;2.65;2.33;;;18.30;79.00;;;;;;2083926;28;20021;-71
2022/06/04 00:20:34;;;;;;;3.85;2.00;;;18.20;79.50;;;;;;2084143;28;20104;-71
2022/06/04 00:21:35;;;;;;;2.88;2.17;;;18.20;80.00;;;;;;2082935;28;20123;-70
2022/06/04 00:22:35;;;;;;;4.80;2.47;;;18.20;80.20;;;;;;2084644;28;20462;-70
2022/06/04 00:23:36;;;;;;;2.50;2.30;;;18.20;80.70;;;;;;2081378;28;20385;-70
2022/06/04 00:24:37;;;;;;;4.75;2.33;;;18.20;80.70;;;;;;2081732;28;20044;-70
2022/06/04 00:25:41;;;;;;;2.63;2.42;;;18.20;80.90;;;;;;2086682;28;20040;-70
2022/06/04 00:26:41;;;;;;;3.05;2.60;;;18.20;81.60;;;;;;2088594;28;20029;-70
2022/06/04 00:27:42;;;;;;;3.28;2.00;;;18.10;82.00;;;;;;2083661;28;20029;-71
2022/06/04 00:28:46;;;;;;;3.85;2.42;;;18.10;81.30;;;;;;2089102;28;20103;-70
2022/06/04 00:29:47;;;;;;;6.50;2.47;;;18.10;82.10;;;;;;2082213;28;20020;-71
2022/06/04 00:30:48;;;;;;;5.80;3.28;;;18.10;82.50;;;;;;2090233;28;20525;-70
2022/06/04 00:31:51;;;;;;;2.55;2.25;;;18.10;82.90;;;;;;2087955;28;20159;-70
2022/06/04 00:32:52;;;;;;;6.65;2.42;;;18.10;82.00;;;;;;2084180;28;20031;-71
2022/06/04 00:33:53;;;;;;;3.35;2.50;;;18.10;82.50;;;;;;2088384;28;20017;-70
2022/06/04 00:34:54;;;;;;;2.38;2.17;;;18.10;83.60;;;;;;2083596;28;20443;-71
2022/06/04 00:35:57;;;;;;;4.13;2.85;;;18.10;82.50;;;;;;2084442;28;20017;-71
2022/06/04 00:36:59;;;;;;;4.47;2.60;;;18.00;83.70;;;;;;2083378;28;20057;-71
2022/06/04 00:37:59;;;;;;;3.65;2.60;;;18.00;84.50;;;;;;2081168;28;20025;-71
2022/06/04 00:39:00;;;;;;;3.10;2.40;;;18.00;84.40;;;;;;2083765;28;20049;-71
2022/06/04 00:40:03;;;;;;;4.25;2.70;;;18.00;85.00;;;;;;2079398;28;20025;-70
2022/06/04 00:41:03;;;;;;;5.97;2.55;;;18.00;85.90;;;;;;2085103;28;20100;-70
2022/06/04 00:42:07;;;;;;;4.85;2.47;;;17.90;86.20;;;;;;2084572;28;20029;-70
2022/06/04 00:43:09;;;;;;;2.92;2.58;;;17.90;86.60;;;;;;2085720;28;20388;-70
2022/06/04 00:44:15;;;;;;;4.95;2.38;;;17.90;86.30;;;;;;2082215;28;20329;-70
2022/06/04 00:45:34;;;;;;;6.00;2.88;;;17.90;86.20;;;;;;2081850;28;20022;-70
2022/06/04 00:46:41;;;;;;;3.78;2.03;;;17.90;88.40;;;;;;2081375;28;20032;-71
2022/06/04 00:47:41;;;;;;;2.42;2.17;;;17.90;87.30;;;;;;2082791;28;20484;-70
2022/06/04 00:48:42;;;;;;;2.88;2.08;;;17.90;87.40;;;;;;2090877;28;20435;-70
2022/06/04 00:49:43;;;;;;;4.00;2.05;;;17.90;85.90;;;;;;2091056;28;20029;-70
2022/06/04 00:50:44;;;;;;;2.78;2.22;;;17.90;86.70;;;;;;2083483;28;20412;-71
2022/06/04 00:51:48;;;;;;;2.53;2.28;;;17.90;86.60;;;;;;2081977;28;20098;-71
2022/06/04 00:52:50;;;;;;;4.22;2.40;;;17.90;86.20;;;;;;2083045;28;20057;-70
2022/06/04 00:53:51;;;;;;;4.25;2.50;;;17.80;85.30;;;;;;2082739;28;20012;-70
2022/06/04 00:54:54;;;;;;;3.20;2.13;;;17.80;86.60;;;;;;2080621;28;20125;-70
2022/06/04 00:56:21;;;;;;;5.57;2.70;;;17.80;88.00;;;;;;2086407;28;20017;-70
2022/06/04 00:57:40;;;;;;;4.00;2.03;;;17.80;89.40;;;;;;2081435;28;20428;-70
2022/06/04 00:59:04;;;;;;;3.22;2.00;;;17.80;90.00;;;;;;2084999;28;20026;-70
2022/06/04 01:00:13;;;;;;;2.92;2.40;;;17.80;89.50;;;;;;2083995;28;20147;-70
2022/06/04 01:01:23;;;;;;;4.05;2.60;;;17.70;90.00;;;;;;2082259;28;20116;-70
2022/06/04 01:02:51;;;;;;;3.33;2.60;;;17.70;91.10;;;;;;2080186;28;20026;-70
2022/06/04 01:04:06;;;;;;;4.05;2.53;;;17.70;91.50;;;;;;2084269;28;20108;-70
2022/06/04 01:05:29;;;;;;;4.93;2.90;;;17.60;92.10;;;;;;2080557;28;20029;-70
2022/06/04 01:06:45;;;;;;;3.58;2.67;;;17.60;92.30;;;;;;2081302;28;20061;-70
2022/06/04 01:08:23;;;;;;;3.85;2.70;;;17.50;93.10;;;;;;2083733;28;20107;-70
2022/06/04 01:09:39;;;;;;;4.90;2.65;;;17.50;94.20;;;;;;2081974;28;20134;-70
2022/06/04 01:10:49;;;;;;;5.10;3.13;;;17.40;93.50;;;;;;2044062;28;1107712;-70
2022/06/04 01:12:11;;;;;;;4.95;2.95;;;17.40;94.80;;;;;;2083262;28;20025;-70
2022/06/04 01:13:33;;;;;;;4.30;2.92;;;17.40;95.00;;;;;;2085459;28;20029;-70
2022/06/04 01:14:43;;;;;;;5.03;3.00;;;17.40;94.70;;;;;;2077052;28;20032;-70
2022/06/04 01:16:11;;;;;;;3.47;2.97;;;17.30;94.60;;;;;;2081100;28;20028;-70
2022/06/04 01:17:41;;;;;;;3.72;2.92;;;17.40;96.20;;;;;;2081100;28;20025;-70
2022/06/04 01:19:11;;;;;;;6.65;3.38;;;17.30;96.50;;;;;;2083472;28;20571;-70
2022/06/04 01:20:32;;;;;;;3.90;2.83;;;17.30;97.80;;;;;;2086955;28;20059;-70
2022/06/04 01:22:11;;;;;;;3.80;2.65;;;17.20;98.70;;;;;;2089070;28;20032;-70
2022/06/04 01:23:56;;;;;;;3.47;2.47;;;17.30;98.20;;;;;;2076010;28;20026;-70
2022/06/04 01:25:00;;;;;;;3.90;3.10;;;17.20;99.10;;;;;;2081831;28;20025;-70
2022/06/04 01:26:19;;;;;;;4.88;2.60;;;17.20;97.80;;;;;;2081668;28;20033;-70
2022/06/04 01:27:29;;;;;;;3.22;2.90;;;17.20;97.70;;;;;;2083080;28;20084;-70
2022/06/04 01:28:37;;;;;;;4.22;3.20;;;17.20;98.40;;;;;;2084299;28;20028;-70
2022/06/04 01:29:44;;;;;;;3.42;3.10;;;17.20;98.30;;;;;;2084944;28;20026;-70
2022/06/04 01:30:50;;;;;;;6.47;3.17;;;17.20;99.00;;;;;;2087834;28;20024;-70
2022/06/04 01:32:00;;;;;;;5.18;3.00;;;17.20;98.50;;;;;;2085200;28;20451;-70
2022/06/04 01:33:15;;;;;;;4.28;2.95;;;17.20;98.30;;;;;;2083473;28;20052;-70
2022/06/04 01:34:22;;;;;;;3.78;3.05;;;17.20;99.40;;;;;;2086314;28;20587;-70
2022/06/04 01:35:36;;;;;;;3.58;3.28;;;17.20;99.20;;;;;;2084812;28;20124;-69
2022/06/04 01:36:50;;;;;;;3.85;3.05;;;17.20;99.40;;;;;;2081891;28;20071;-70
2022/06/04 01:38:16;;;;;;;7.20;3.28;;;17.20;99.40;;;;;;2081386;28;20489;-70
2022/06/04 01:39:24;;;;;;;3.55;3.00;;;17.20;99.50;;;;;;2081113;28;20072;-70
2022/06/04 01:41:57;;;;;;;5.50;3.13;;;17.10;99.90;;;;;;2080681;28;20025;-70
2022/06/04 01:42:59;;;;;;;5.95;3.30;;;17.10;99.90;;;;;;2081046;28;20033;-70
2022/06/04 01:44:15;;;;;;;4.35;3.05;;;17.10;99.90;;;;;;2084870;28;20074;-70
2022/06/04 01:45:21;;;;;;;7.20;3.60;;;17.10;99.90;;;;;;2086081;28;20037;-70
2022/06/04 01:46:24;;;;;;;6.90;3.38;;;17.00;99.90;;;;;;2087328;28;20032;-70
2022/06/04 01:47:28;;;;;;;7.45;3.60;;;17.00;99.90;;;;;;2083232;28;20699;-70
2022/06/04 01:48:32;;;;;;;5.90;3.10;;;17.00;99.90;;;;;;2083905;28;20028;-70
2022/06/04 01:49:35;;;;;;;5.78;3.42;;;17.00;99.90;;;;;;2083097;28;20121;-70
2022/06/04 01:50:42;;;;;;;3.97;3.40;;;17.00;99.90;;;;;;2081829;28;20033;-70
2022/06/04 01:51:45;;;;;;;4.25;3.65;;;17.00;99.90;;;;;;2079994;28;20025;-70
2022/06/04 01:52:48;;;;;;;3.33;2.85;;;17.00;99.90;;;;;;2082393;28;20043;-70
2022/06/04 01:53:52;;;;;;;4.80;3.35;;;17.00;99.90;;;;;;2081931;28;20048;-70
2022/06/04 01:55:04;;;;;;;4.07;3.53;;;17.00;99.90;;;;;;2082351;28;20047;-70
2022/06/04 01:56:13;;;;;;;3.47;3.10;;;17.00;99.90;;;;;;2082904;28;20029;-70
2022/06/04 01:57:29;;;;;;;7.45;3.78;;;17.00;99.90;;;;;;2080602;28;20021;-70
2022/06/04 01:58:41;;;;;;;3.90;3.50;;;16.90;99.90;;;;;;2082718;28;20140;-70
2022/06/04 01:59:51;;;;;;;4.63;3.90;;;16.90;99.90;;;;;;2085498;28;20029;-70
2022/06/04 02:00:59;;;;;;;5.15;3.22;;;16.90;99.90;;;;;;2084308;28;20017;-70
2022/06/04 02:02:01;;;;;;;6.28;3.63;;;16.90;99.90;;;;;;2080029;28;20514;-70
2022/06/04 02:03:42;;;;;;;5.57;3.47;;;16.90;99.90;;;;;;2082820;28;20034;-70
2022/06/04 02:04:49;;;;;;;6.22;3.95;;;16.80;99.90;;;;;;2084433;28;20473;-70
2022/06/04 02:05:55;;;;;;;3.40;3.10;;;16.80;99.90;;;;;;2081682;28;20389;-70
2022/06/04 02:08:31;;;;;;;4.07;3.63;;;16.80;99.90;;;;;;2085445;28;20033;-70
2022/06/04 02:09:33;;;;;;;4.30;3.25;;;16.80;99.90;;;;;;2084936;28;20473;-70
2022/06/04 02:10:40;;;;;;;3.78;3.20;;;16.80;99.90;;;;;;2083053;28;20029;-70
2022/06/04 02:11:50;;;;;;;4.85;3.63;;;16.80;99.90;;;;;;2084251;28;20033;-70
2022/06/04 02:12:54;;;;;;;6.25;3.30;;;16.80;99.90;;;;;;2084747;28;20025;-70
2022/06/04 02:13:59;;;;;;;7.55;4.28;;;16.70;99.90;;;;;;2086299;28;20029;-70
2022/06/04 02:15:04;;;;;;;5.13;3.83;;;16.80;99.90;;;;;;2085160;28;20091;-70
2022/06/04 02:16:20;;;;;;;4.60;3.30;;;16.80;99.90;;;;;;2086047;28;20044;-70
2022/06/04 02:17:24;;;;;;;4.32;3.83;;;16.70;99.90;;;;;;2085268;28;20021;-70
2022/06/04 02:18:25;;;;;;;3.75;3.10;;;16.80;99.90;;;;;;2083672;28;20028;-70
2022/06/04 02:19:26;;;;;;;4.72;3.50;;;16.80;99.90;;;;;;2084156;28;20026;-70
2022/06/04 02:20:27;;;;;;;4.18;3.78;;;16.70;99.90;;;;;;2083703;28;20027;-70
2022/06/04 02:21:30;;;;;;;6.75;4.10;;;16.70;99.90;;;;;;2086059;28;20032;-70
2022/06/04 02:22:31;;;;;;;6.28;3.80;;;16.70;99.90;;;;;;2083361;28;20013;-70
2022/06/04 02:23:34;;;;;;;4.75;3.67;;;16.70;99.90;;;;;;2083080;28;20017;-70
2022/06/04 02:24:35;;;;;;;5.63;3.75;;;16.70;99.90;;;;;;2085093;28;20075;-70
2022/06/04 02:25:36;;;;;;;6.40;3.80;;;16.70;99.90;;;;;;2085252;28;20022;-70
2022/06/04 02:26:41;;;;;;;5.07;3.47;;;16.70;99.90;;;;;;2083413;28;20120;-70
2022/06/04 02:27:43;;;;;;;5.05;3.70;;;16.70;99.90;;;;;;2084029;28;20358;-70
2022/06/04 02:28:44;;;;;;;5.13;3.63;;;16.60;99.90;;;;;;2082156;28;20026;-70
2022/06/04 02:29:45;;;;;;;4.75;3.72;;;16.60;99.90;;;;;;2081964;28;20064;-70
2022/06/04 02:31:02;;;;;;;5.10;3.90;;;16.60;99.90;;;;;;2086582;28;20028;-70
2022/06/04 02:32:57;;;;;;;8.43;4.25;;;16.60;99.90;;;;;;2082600;28;20079;-70
2022/06/04 02:33:57;;;;;;;4.40;3.60;;;16.60;99.90;;;;;;2067567;28;20065;-70
2022/06/04 02:35:02;;;;;;;4.40;3.38;;;16.50;99.90;;;;;;2069267;28;20038;-70
2022/06/04 02:36:09;;;;;;;4.57;3.63;;;16.60;99.90;;;;;;2075040;28;20124;-70
2022/06/04 02:37:20;;;;;;;6.97;3.83;;;16.60;99.90;;;;;;2086216;28;20068;-70
2022/06/04 02:38:43;;;;;;;4.85;3.90;;;16.50;99.90;;;;;;2084464;28;20013;-70
2022/06/04 02:39:54;;;;;;;6.20;3.90;;;16.50;99.90;;;;;;2086202;28;20064;-70
2022/06/04 02:40:57;;;;;;;5.38;3.85;;;16.50;99.90;;;;;;2083836;28;20013;-71
2022/06/04 02:42:19;;;;;;;5.72;3.63;;;16.50;99.90;;;;;;2093612;28;20107;-70
2022/06/04 02:43:31;;;;;;;7.55;3.72;;;16.50;99.90;;;;;;2090922;28;20451;-70
2022/06/04 02:44:46;;;;;;;8.05;3.92;;;16.50;99.90;;;;;;2084902;28;20609;-70
2022/06/04 02:46:11;;;;;;;3.70;3.35;;;16.50;99.90;;;;;;2085009;28;20021;-70
2022/06/04 02:47:26;;;;;;;5.05;3.53;;;16.40;99.90;;;;;;2084362;28;20535;-70
2022/06/04 02:48:44;;;;;;;4.00;3.70;;;16.40;99.90;;;;;;2083605;28;20049;-70
2022/06/04 02:49:56;;;;;;;5.45;4.13;;;16.40;99.90;;;;;;2087540;28;20033;-71
2022/06/04 02:51:21;;;;;;;4.32;3.92;;;16.30;99.90;;;;;;2085345;28;20080;-70
2022/06/04 02:52:23;;;;;;;3.70;3.35;;;16.30;99.90;;;;;;2083431;28;20032;-70
2022/06/04 02:53:27;;;;;;;4.03;3.50;;;16.30;99.90;;;;;;2087894;28;20035;-70
2022/06/04 02:54:39;;;;;;;5.05;3.72;;;16.30;99.90;;;;;;2082646;28;20043;-70
2022/06/04 02:55:55;;;;;;;11.38;4.43;;;16.20;99.90;;;;;;2090542;28;20031;-70
2022/06/04 02:56:59;;;;;;;11.25;4.25;;;16.20;99.90;;;;;;2084303;28;20540;-70
2022/06/04 02:58:06;;;;;;;4.28;3.63;;;16.30;99.90;;;;;;2082764;28;20056;-70
2022/06/04 02:59:09;;;;;;;5.30;4.25;;;16.30;99.90;;;;;;2082735;28;20025;-70
2022/06/04 03:00:13;;;;;;;4.50;3.78;;;16.30;99.90;;;;;;2086174;28;20025;-70
2022/06/04 03:01:15;;;;;;;5.93;3.60;;;16.30;99.90;;;;;;2086056;28;20044;-70
2022/06/04 03:02:18;;;;;;;5.07;3.25;;;16.20;99.90;;;;;;2086053;28;20477;-70
2022/06/04 03:03:20;;;;;;;6.13;4.15;;;16.20;99.90;;;;;;2087649;28;20060;-70
2022/06/04 03:04:21;;;;;;;5.55;4.13;;;16.30;99.90;;;;;;2084526;28;20393;-70
2022/06/04 03:05:25;;;;;;;6.22;4.00;;;16.20;99.90;;;;;;2083347;28;20579;-70
2022/06/04 03:06:30;;;;;;;4.22;3.83;;;16.30;99.90;;;;;;2085378;28;20059;-70
2022/06/04 03:07:31;;;;;;;7.15;3.72;;;16.30;99.90;;;;;;2084717;28;20021;-70
2022/06/04 03:08:37;;;;;;;6.70;4.07;;;16.20;99.90;;;;;;2085110;28;20552;-70
2022/06/04 03:09:39;;;;;;;6.03;3.75;;;16.20;99.90;;;;;;2082794;28;20032;-70
2022/06/04 03:10:40;;;;;;;8.50;4.13;;;16.20;99.90;;;;;;2085277;28;20117;-70
2022/06/04 03:11:46;;;;;;;7.10;3.88;;;16.20;99.90;;;;;;2083643;28;20017;-70
2022/06/04 03:12:47;;;;;;;6.32;4.30;;;16.20;99.90;;;;;;2085406;28;20689;-70
2022/06/04 03:13:49;;;;;;;5.82;3.90;;;16.20;99.90;;;;;;2082896;28;20070;-70
2022/06/04 03:14:49;;;;;;;6.65;3.90;;;16.30;99.90;;;;;;2084650;28;20031;-70
2022/06/04 03:15:50;;;;;;;6.75;4.28;;;16.30;99.90;;;;;;2084502;28;20009;-70
2022/06/04 03:16:51;;;;;;;4.85;3.80;;;16.20;99.90;;;;;;2083628;28;20492;-70
2022/06/04 03:17:53;;;;;;;5.53;3.97;;;16.20;99.90;;;;;;2081508;28;20677;-70
2022/06/04 03:18:53;;;;;;;4.63;3.60;;;16.20;99.90;;;;;;2085827;28;20013;-70
2022/06/04 03:19:54;;;;;;;4.70;3.33;;;16.20;99.90;;;;;;2083826;28;20076;-70
2022/06/04 03:20:54;;;;;;;6.25;3.95;;;16.20;99.90;;;;;;2084023;28;20029;-70
2022/06/04 03:21:55;;;;;;;5.03;3.83;;;16.20;99.90;;;;;;2087446;28;20029;-70
2022/06/04 03:22:56;;;;;;;5.20;3.75;;;16.20;99.90;;;;;;2087315;28;20024;-70
2022/06/04 03:23:57;;;;;;;6.55;3.85;;;16.20;99.90;;;;;;2083868;28;20489;-70
2022/06/04 03:24:57;;;;;;;4.85;3.90;;;16.20;99.90;;;;;;2082305;28;20119;-70
2022/06/04 03:25:58;;;;;;;5.60;4.10;;;16.30;99.90;;;;;;2082030;28;20025;-70
2022/06/04 03:26:59;;;;;;;4.43;4.03;;;16.20;99.90;;;;;;2086126;28;20029;-70
2022/06/04 03:28:00;;;;;;;4.90;3.88;;;16.20;99.90;;;;;;2084954;28;20033;-70
2022/06/04 03:29:00;;;;;;;6.20;4.50;;;16.20;99.90;;;;;;2085800;28;20033;-70
2022/06/04 03:30:02;;;;;;;4.55;4.13;;;16.20;99.90;;;;;;2082559;28;20037;-70
2022/06/04 03:31:03;;;;;;;4.47;3.92;;;16.20;99.90;;;;;;2081057;28;20037;-70
2022/06/04 03:32:04;;;;;;;5.13;3.63;;;16.20;99.90;;;;;;2081754;28;20037;-70
2022/06/04 03:33:05;;;;;;;4.97;4.22;;;16.20;99.90;;;;;;2082892;28;20071;-70
2022/06/04 03:34:06;;;;;;;7.30;4.20;;;16.20;99.90;;;;;;2081685;28;20059;-70
2022/06/04 03:35:07;;;;;;;4.72;4.22;;;16.20;99.90;;;;;;2081189;28;20036;-70
2022/06/04 03:36:11;;;;;;;4.35;3.72;;;16.20;99.90;;;;;;2080162;28;20025;-70
2022/06/04 03:37:12;;;;;;;4.43;3.75;;;16.20;99.90;;;;;;2082840;28;20021;-70
2022/06/04 03:38:12;;;;;;;6.20;3.80;;;16.20;99.90;;;;;;2081442;28;20053;-70
2022/06/04 03:39:13;;;;;;;4.47;4.07;;;16.20;99.90;;;;;;2085484;28;20067;-70
2022/06/04 03:40:14;;;;;;;6.13;4.05;;;16.20;99.90;;;;;;2083217;28;20082;-70
2022/06/04 03:41:15;;;;;;;5.50;3.58;;;16.20;99.90;;;;;;2085432;28;20052;-70
2022/06/04 03:42:15;;;;;;;4.00;3.60;;;16.20;99.90;;;;;;2083259;28;20033;-70
2022/06/04 03:43:16;;;;;;;4.38;3.80;;;16.20;99.90;;;;;;2087012;28;20021;-70
2022/06/04 03:44:17;;;;;;;4.78;4.03;;;16.20;99.90;;;;;;2081675;28;20029;-70
2022/06/04 03:45:17;;;;;;;5.72;4.13;;;16.20;99.90;;;;;;2081767;28;20036;-70
2022/06/04 03:46:20;;;;;;;5.97;3.97;;;16.20;99.90;;;;;;2081552;28;20420;-70
2022/06/04 03:47:21;;;;;;;5.88;4.43;;;16.20;99.90;;;;;;2083615;28;20029;-70
2022/06/04 03:48:22;;;;;;;7.47;3.65;;;16.20;99.90;;;;;;2084694;28;20028;-70
2022/06/04 03:49:23;;;;;;;6.60;4.38;;;16.20;99.90;;;;;;2082767;28;20055;-70
2022/06/04 03:50:27;;;;;;;4.53;4.15;;;16.20;99.90;;;;;;2085863;28;20029;-70
2022/06/04 03:51:29;;;;;;;5.95;3.72;;;16.20;99.90;;;;;;2083560;28;20037;-70
2022/06/04 03:52:29;;;;;;;4.28;3.78;;;16.20;99.90;;;;;;2084051;28;20037;-70
2022/06/04 03:53:30;;;;;;;5.00;3.67;;;16.20;99.90;;;;;;2084423;28;20026;-70
2022/06/04 03:55:50;;;;;;;8.68;4.10;;;16.20;99.90;;;;;;2082502;28;20461;-70
2022/06/04 03:57:37;;;;;;;5.13;3.92;;;16.20;99.90;;;;;;2083118;28;20392;-70
2022/06/04 03:58:11;;;;;;;6.97;3.58;;;16.20;99.90;;;;;;2084377;28;20124;-70
2022/06/04 03:59:11;;;;;;;5.55;4.20;;;16.20;99.90;;;;;;2088295;28;20018;-70
2022/06/04 04:00:24;;;;;;;6.68;4.13;;;16.20;99.90;;;;;;2081369;28;20025;-70
2022/06/04 04:01:27;;;;;;;4.63;3.85;;;16.20;99.90;;;;;;2086396;28;20560;-70
2022/06/04 04:02:28;;;;;;;5.68;3.75;;;16.20;99.90;;;;;;2084873;28;20021;-70
2022/06/04 04:03:30;;;;;;;4.70;4.07;;;16.20;99.90;;;;;;2085729;28;20029;-70
2022/06/04 04:04:30;;;;;;;3.95;3.55;;;16.20;99.90;;;;;;2084940;28;20029;-70
2022/06/04 04:05:35;;;;;;;5.78;3.78;;;16.20;99.90;;;;;;2084601;28;20025;-70
2022/06/04 04:06:35;;;;;;;7.40;4.00;;;16.30;99.90;;;;;;2088436;28;20017;-70
2022/06/04 04:07:36;;;;;;;5.75;3.72;;;16.20;99.90;;;;;;2085609;28;20112;-70
2022/06/04 04:08:37;;;;;;;6.43;4.32;;;16.30;99.90;;;;;;2084648;28;20116;-70
2022/06/04 04:09:37;;;;;;;5.45;3.90;;;16.30;99.90;;;;;;2084282;28;20022;-70
2022/06/04 04:10:41;;;;;;;4.47;3.90;;;16.30;99.90;;;;;;2084711;28;20032;-70
2022/06/04 04:11:41;;;;;;;4.82;4.10;;;16.30;99.90;;;;;;2085364;28;20076;-70
2022/06/04 04:12:42;;;;;;;4.30;3.88;;;16.30;99.90;;;;;;2083966;28;20025;-70
2022/06/04 04:13:44;;;;;;;7.93;3.97;;;16.30;99.90;;;;;;2084620;28;20033;-70
2022/06/04 04:14:44;;;;;;;5.13;3.92;;;16.20;99.90;;;;;;2085895;28;20075;-70
2022/06/04 04:15:45;;;;;;;4.00;3.70;;;16.30;99.90;;;;;;2087952;28;20029;-70
2022/06/04 04:16:46;;;;;;;4.82;4.05;;;16.20;99.90;;;;;;2087156;28;20054;-70
2022/06/04 04:17:47;;;;;;;4.53;3.67;;;16.20;99.90;;;;;;2081247;28;20033;-70
2022/06/04 04:18:48;;;;;;;5.88;3.63;;;16.30;99.90;;;;;;2085709;28;20472;-70
2022/06/04 04:19:48;;;;;;;4.35;3.95;;;16.30;99.90;;;;;;2083202;28;20360;-70
2022/06/04 04:20:49;;;;;;;6.30;4.38;;;16.30;99.90;;;;;;2083529;28;20078;-70
2022/06/04 04:21:50;;;;;;;6.63;4.65;;;16.30;99.90;;;;;;2087824;28;20027;-70
2022/06/04 04:22:51;;;;;;;6.10;3.95;;;16.30;99.90;;;;;;2082301;28;20497;-70
2022/06/04 04:23:51;;;;;;;7.22;4.10;;;16.20;99.90;;;;;;2084360;28;20021;-70
2022/06/04 04:24:54;;;;;;;5.45;4.03;;;16.30;99.90;;;;;;2084666;28;20017;-70
2022/06/04 04:25:54;;;;;;;4.63;3.70;;;16.30;99.90;;;;;;2081126;28;20017;-70
2022/06/04 04:26:55;;;;;;;6.03;4.20;;;16.20;99.90;;;;;;2084652;28;20075;-70
2022/06/04 04:27:57;;;;;;;4.85;3.63;;;16.20;99.90;;;;;;2083454;28;20017;-70
2022/06/04 04:28:57;;;;;;;4.82;4.43;;;16.20;99.90;;;;;;2086047;28;20111;-70
2022/06/04 04:29:58;;;;;;;5.93;4.28;;;16.20;99.90;;;;;;2086034;28;20025;-70
2022/06/04 04:30:59;;;;;;;6.10;3.90;;;16.20;99.90;;;;;;2083061;28;20032;-70
2022/06/04 04:32:00;;;;;;;5.97;3.85;;;16.20;99.90;;;;;;2085833;28;20423;-70
2022/06/04 04:33:01;;;;;;;4.97;4.43;;;16.20;99.90;;;;;;2084146;28;20025;-70
2022/06/04 04:34:02;;;;;;;4.07;3.67;;;16.20;99.90;;;;;;2085305;28;20104;-70
2022/06/04 04:35:06;;;;;;;4.43;4.03;;;16.20;99.90;;;;;;2081149;28;20396;-70
2022/06/04 04:36:08;;;;;;;4.82;3.97;;;16.20;99.90;;;;;;2081518;28;20552;-70
2022/06/04 04:37:09;;;;;;;4.82;4.32;;;16.20;99.90;;;;;;2080467;28;20033;-70
2022/06/04 04:38:11;;;;;;;9.18;4.05;;;16.20;99.90;;;;;;2083693;28;20053;-70
2022/06/04 04:39:12;;;;;;;5.00;4.18;;;16.20;99.90;;;;;;2080970;28;20128;-70
2022/06/04 04:40:14;;;;;;;7.68;4.53;;;16.20;99.90;;;;;;2083445;28;20029;-70
2022/06/04 04:41:15;;;;;;;4.25;3.90;;;16.20;99.90;;;;;;2083586;28;20031;-70
2022/06/04 04:42:16;;;;;;;4.43;3.80;;;16.20;99.90;;;;;;2083633;28;20028;-70
2022/06/04 04:43:17;;;;;;;5.53;4.07;;;16.20;99.90;;;;;;2081503;28;20033;-70
2022/06/04 04:44:17;;;;;;;4.65;4.05;;;16.20;99.90;;;;;;2080701;28;20112;-70
2022/06/04 04:45:20;;;;;;;4.38;3.97;;;16.20;99.90;;;;;;2083680;28;20049;-70
2022/06/04 04:46:21;;;;;;;5.50;3.53;;;16.20;99.90;;;;;;2084378;28;20032;-70
2022/06/04 04:47:21;;;;;;;6.38;4.20;;;16.20;99.90;;;;;;2083924;28;20522;-70
2022/06/04 04:48:22;;;;;;;5.50;4.18;;;16.30;99.90;;;;;;2084857;28;20392;-70
2022/06/04 04:49:23;;;;;;;6.15;4.53;;;16.30;99.90;;;;;;2083367;28;20112;-70
2022/06/04 04:50:26;;;;;;;6.22;4.40;;;16.30;99.90;;;;;;2081287;28;20026;-70
2022/06/04 04:51:27;;;;;;;4.65;4.13;;;16.30;99.90;;;;;;2079794;28;20029;-70
2022/06/04 04:52:30;;;;;;;6.82;4.53;;;16.30;99.90;;;;;;2083239;28;20534;-70
2022/06/04 04:53:31;;;;;;;5.72;4.10;;;16.30;99.90;;;;;;2081632;28;20026;-70
2022/06/04 04:54:32;;;;;;;6.97;4.55;;;16.30;99.90;;;;;;2076487;28;20113;-70
2022/06/04 04:55:33;;;;;;;5.60;3.90;;;16.30;99.90;;;;;;2085855;28;20027;-70
2022/06/04 04:56:34;;;;;;;5.55;4.25;;;16.30;99.90;;;;;;2084837;28;20041;-70
2022/06/04 04:57:34;;;;;;;4.68;4.28;;;16.30;99.90;;;;;;2084179;28;20021;-70
2022/06/04 04:58:35;;;;;;;4.65;4.13;;;16.30;99.90;;;;;;2082793;28;20045;-70
2022/06/04 04:59:39;;;;;;;5.93;4.28;;;16.30;99.90;;;;;;2086394;28;20032;-70
2022/06/04 05:00:39;;;;;;;4.63;4.22;;;16.30;99.90;;;;;;2083762;28;20030;-70
2022/06/04 05:01:40;;;;;;;5.03;4.13;;;16.30;99.90;;;;;;2084955;28;20500;-70
2022/06/04 05:02:40;;;;;;;5.53;4.28;;;16.30;99.90;;;;;;2085892;28;20478;-70
2022/06/04 05:03:44;;;;;;;6.43;4.30;;;16.30;99.90;;;;;;2083876;28;20071;-70
2022/06/04 05:04:44;;;;;;;4.57;4.10;;;16.40;99.90;;;;;;2084739;28;20036;-69
2022/06/04 05:05:45;;;;;;;4.20;3.80;;;16.40;99.90;;;;;;2084097;28;20134;-69
2022/06/04 05:06:46;;;;;;;4.78;3.88;;;16.40;99.90;;;;;;2080995;28;20029;-69
2022/06/04 05:07:46;;;;;;;5.18;4.18;;;16.40;99.90;;;;;;2082459;28;20024;-70
2022/06/04 05:08:48;;;;;;;5.93;3.88;;;16.40;99.90;;;;;;2085295;28;20063;-69
2022/06/04 05:09:49;;;;;;;5.65;4.00;;;16.50;99.90;;;;;;2080923;28;20021;-69
2022/06/04 05:10:49;;;;;;;6.57;4.38;;;16.50;99.90;;;;;;2086077;28;20033;-69
2022/06/04 05:11:50;;;;;;;4.22;3.88;;;16.60;99.90;;;;;;2086985;28;20044;-69
2022/06/04 05:12:52;;;;;;;5.20;4.70;;;16.60;99.90;;;;;;2083180;28;20093;-69
2022/06/04 05:13:54;;;;;;;4.75;4.25;;;16.60;99.90;;;;;;2083355;28;20021;-69
2022/06/04 05:14:55;;;;;;;8.85;4.35;;;16.60;99.90;;;;;;2084717;28;20009;-69
2022/06/04 05:15:55;;;;;;;4.40;4.00;;;16.60;99.90;;;;;;2085540;28;20523;-69
2022/06/04 05:16:56;;;;;;;11.55;5.35;;;16.60;99.90;;;;;;2087012;28;20598;-69
2022/06/04 05:17:57;;;;;;;5.40;4.15;;;16.60;99.90;;;;;;2081978;28;20662;-69
2022/06/04 05:18:58;;;;;;;4.93;4.40;;;16.60;99.90;;;;;;2084215;28;20550;-69
2022/06/04 05:19:59;;;;;;;4.70;4.22;;;16.60;99.90;;;;;;2082021;28;20022;-69
2022/06/04 05:21:21;;;;;;;4.55;4.00;;;16.60;99.90;;;;;;2082511;28;20036;-70
2022/06/04 05:22:22;;;;;;;5.63;4.72;;;16.70;99.90;;;;;;2082586;28;20025;-69
2022/06/04 05:23:23;;;;;;;5.60;4.25;;;16.70;99.90;;;;;;2084242;28;20060;-69
2022/06/04 05:24:35;;;;;;;7.65;4.30;;;16.70;99.90;;;;;;2084302;28;20075;-70
2022/06/04 05:25:37;;;;;;;4.35;3.97;;;16.70;99.90;;;;;;2081694;28;20110;-69
2022/06/04 05:26:41;;;;;;;4.82;4.30;;;16.70;99.90;;;;;;2087724;28;20072;-69
2022/06/04 05:27:41;;;;;;;5.35;4.53;;;16.70;99.90;;;;;;2088520;28;20025;-70
2022/06/04 05:28:42;;;;;;;5.22;4.68;;;16.80;99.90;;;;;;2085305;28;20025;-70
2022/06/04 05:29:43;;;;;;;4.78;4.30;;;16.80;99.90;;;;;;2086024;28;20064;-70
2022/06/04 05:30:44;;;;;;;6.90;4.38;;;16.80;99.90;;;;;;2081943;28;20025;-70
2022/06/04 05:31:47;;;;;;;5.65;4.40;;;16.80;99.90;;;;;;2085030;28;20032;-70
2022/06/04 05:32:48;;;;;;;6.30;4.97;;;16.80;99.90;;;;;;2087256;28;20416;-69
2022/06/04 05:33:48;;;;;;;6.93;4.63;;;16.80;99.90;;;;;;2085543;28;20055;-69
2022/06/04 05:34:49;;;;;;;5.47;4.40;;;16.80;99.90;;;;;;2081541;28;20029;-70
2022/06/04 05:35:49;;;;;;;4.90;4.00;;;16.80;99.90;;;;;;2087112;28;20040;-70
2022/06/04 05:36:53;;;;;;;5.00;4.60;;;16.90;99.90;;;;;;2088028;28;20025;-70
2022/06/04 05:37:53;;;;;;;5.15;4.57;;;16.90;99.90;;;;;;2081831;28;20024;-70
2022/06/04 05:38:54;;;;;;;4.70;3.55;;;16.90;99.90;;;;;;2082202;28;20052;-70
2022/06/04 05:39:54;;;;;;;10.85;4.95;;;16.90;99.90;;;;;;2082015;28;20073;-71
2022/06/04 05:41:00;;;;;;;5.43;4.78;;;16.90;99.90;;;;;;2088199;28;20024;-70
2022/06/04 05:42:02;;;;;;;5.22;4.53;;;16.90;99.90;;;;;;2082658;28;20049;-70
2022/06/04 05:43:03;;;;;;;8.35;5.03;;;17.00;99.90;;;;;;2085550;28;20029;-70
2022/06/04 05:44:05;;;;;;;5.93;4.30;;;17.00;99.90;;;;;;2082025;28;20060;-70
2022/06/04 05:45:06;;;;;;;6.30;4.88;;;17.00;99.90;;;;;;2085047;28;20022;-70
2022/06/04 05:46:12;;;;;;;7.55;4.60;;;17.00;99.90;;;;;;2083528;28;20028;-70
2022/06/04 05:47:13;;;;;;;5.60;4.63;;;17.00;99.90;;;;;;2081833;28;20025;-70
2022/06/04 05:48:13;;;;;;;4.45;4.05;;;17.10;99.90;;;;;;2084507;28;20021;-70